sensor_id;sensor_type;location;lat;lon;timestamp;pressure;altitude;pressure_sealevel;temperature;humidity
47104;BME280;32853;52.164;5.400;2023-05-07T00:01:16;101570.44;;;17.57;100.00
47104;BME280;32853;52.164;5.400;2023-05-07T00:03:42;101582.03;;;17.70;100.00
47104;BME280;32853;52.164;5.400;2023-05-07T00:06:08;101575.38;;;17.63;100.00
47104;BME280;32853;52.164;5.400;2023-05-07T00:08:36;101569.56;;;17.57;100.00
47104;BME280;32853;52.164;5.400;2023-05-07T00:11:02;101588.84;;;17.59;100.00
47104;BME280;32853;52.164;5.400;2023-05-07T00:13:27;101585.09;;;17.63;100.00
47104;BME280;32853;52.164;5.400;2023-05-07T00:16:02;101558.25;;;17.39;100.00
47104;BME280;32853;52.164;5.400;2023-05-07T00:18:28;101590.06;;;17.53;100.00
47104;BME280;32853;52.164;5.400;2023-05-07T00:20:53;101584.44;;;17.43;100.00
47104;BME280;32853;52.164;5.400;2023-05-07T00:23:18;101579.63;;;17.50;100.00
47104;BME280;32853;52.164;5.400;2023-05-07T00:25:53;101570.50;;;17.56;100.00
47104;BME280;32853;52.164;5.400;2023-05-07T00:28:18;101579.50;;;17.53;100.00
47104;BME280;32853;52.164;5.400;2023-05-07T00:30:43;101569.44;;;17.44;100.00
47104;BME280;32853;52.164;5.400;2023-05-07T00:33:12;101577.50;;;17.57;100.00
47104;BME280;32853;52.164;5.400;2023-05-07T00:35:37;101549.13;;;17.45;100.00
47104;BME280;32853;52.164;5.400;2023-05-07T00:38:06;101563.88;;;17.49;100.00
47104;BME280;32853;52.164;5.400;2023-05-07T00:40:32;101571.88;;;17.47;100.00
47104;BME280;32853;52.164;5.400;2023-05-07T00:42:57;101560.13;;;17.37;100.00
47104;BME280;32853;52.164;5.400;2023-05-07T00:45:26;101536.00;;;17.27;100.00
47104;BME280;32853;52.164;5.400;2023-05-07T00:47:57;101548.13;;;17.31;100.00
47104;BME280;32853;52.164;5.400;2023-05-07T00:50:29;101497.06;;;16.99;100.00
47104;BME280;32853;52.164;5.400;2023-05-07T00:52:55;101563.22;;;17.29;100.00
47104;BME280;32853;52.164;5.400;2023-05-07T00:55:22;101507.81;;;16.96;100.00
47104;BME280;32853;52.164;5.400;2023-05-07T00:57:49;101564.66;;;17.35;100.00
47104;BME280;32853;52.164;5.400;2023-05-07T01:00:14;101576.16;;;17.34;100.00
47104;BME280;32853;52.164;5.400;2023-05-07T01:02:41;101516.56;;;17.12;100.00
47104;BME280;32853;52.164;5.400;2023-05-07T01:05:12;101564.38;;;17.39;100.00
47104;BME280;32853;52.164;5.400;2023-05-07T01:07:39;101506.50;;;17.03;100.00
47104;BME280;32853;52.164;5.400;2023-05-07T01:10:06;101537.22;;;17.22;100.00
47104;BME280;32853;52.164;5.400;2023-05-07T01:12:33;101551.94;;;17.41;100.00
47104;BME280;32853;52.164;5.400;2023-05-07T01:14:59;101541.97;;;17.31;100.00
47104;BME280;32853;52.164;5.400;2023-05-07T01:17:24;101553.13;;;17.36;100.00
47104;BME280;32853;52.164;5.400;2023-05-07T01:19:51;101537.53;;;17.31;100.00
47104;BME280;32853;52.164;5.400;2023-05-07T01:22:42;101551.84;;;17.43;100.00
47104;BME280;32853;52.164;5.400;2023-05-07T01:25:09;101562.19;;;17.32;100.00
47104;BME280;32853;52.164;5.400;2023-05-07T01:27:35;101555.13;;;17.32;100.00
47104;BME280;32853;52.164;5.400;2023-05-07T01:30:05;101507.88;;;17.10;100.00
47104;BME280;32853;52.164;5.400;2023-05-07T01:32:38;101558.59;;;17.33;100.00
47104;BME280;32853;52.164;5.400;2023-05-07T01:35:07;101548.97;;;17.32;100.00
47104;BME280;32853;52.164;5.400;2023-05-07T01:37:35;101558.00;;;17.28;100.00
47104;BME280;32853;52.164;5.400;2023-05-07T01:40:01;101511.31;;;16.97;100.00
47104;BME280;32853;52.164;5.400;2023-05-07T01:42:28;101545.91;;;17.24;100.00
47104;BME280;32853;52.164;5.400;2023-05-07T01:44:54;101548.88;;;17.33;100.00
47104;BME280;32853;52.164;5.400;2023-05-07T01:47:20;101544.88;;;17.26;100.00
47104;BME280;32853;52.164;5.400;2023-05-07T01:49:51;101561.16;;;17.34;100.00
47104;BME280;32853;52.164;5.400;2023-05-07T01:52:23;101495.00;;;17.04;100.00
47104;BME280;32853;52.164;5.400;2023-05-07T01:54:50;101539.75;;;17.23;100.00
47104;BME280;32853;52.164;5.400;2023-05-07T01:57:15;101509.59;;;17.11;100.00
47104;BME280;32853;52.164;5.400;2023-05-07T01:59:50;101491.34;;;17.07;100.00
47104;BME280;32853;52.164;5.400;2023-05-07T02:02:16;101536.69;;;17.31;100.00
47104;BME280;32853;52.164;5.400;2023-05-07T02:04:41;101554.00;;;17.36;100.00
47104;BME280;32853;52.164;5.400;2023-05-07T02:07:07;101550.16;;;17.26;100.00
47104;BME280;32853;52.164;5.400;2023-05-07T02:09:33;101558.41;;;17.36;100.00
47104;BME280;32853;52.164;5.400;2023-05-07T02:11:58;101507.13;;;17.08;100.00
47104;BME280;32853;52.164;5.400;2023-05-07T02:14:27;101530.38;;;17.18;100.00
47104;BME280;32853;52.164;5.400;2023-05-07T02:16:52;101573.34;;;17.37;100.00
47104;BME280;32853;52.164;5.400;2023-05-07T02:19:30;101541.19;;;17.29;100.00
47104;BME280;32853;52.164;5.400;2023-05-07T02:21:56;101503.78;;;17.05;100.00
47104;BME280;32853;52.164;5.400;2023-05-07T02:24:21;101531.94;;;17.22;100.00
47104;BME280;32853;52.164;5.400;2023-05-07T02:26:47;101508.75;;;17.11;100.00
47104;BME280;32853;52.164;5.400;2023-05-07T02:29:13;101555.59;;;17.39;100.00
47104;BME280;32853;52.164;5.400;2023-05-07T02:31:38;101535.31;;;17.24;100.00
47104;BME280;32853;52.164;5.400;2023-05-07T02:34:09;101547.09;;;17.34;100.00
47104;BME280;32853;52.164;5.400;2023-05-07T02:36:45;101552.38;;;17.34;100.00
47104;BME280;32853;52.164;5.400;2023-05-07T02:39:13;101554.41;;;17.29;100.00
47104;BME280;32853;52.164;5.400;2023-05-07T02:41:38;101506.88;;;16.97;100.00
47104;BME280;32853;52.164;5.400;2023-05-07T02:44:07;101554.41;;;17.29;100.00
47104;BME280;32853;52.164;5.400;2023-05-07T02:46:32;101554.41;;;17.29;100.00
47104;BME280;32853;52.164;5.400;2023-05-07T02:48:58;101538.16;;;17.21;100.00
47104;BME280;32853;52.164;5.400;2023-05-07T02:51:25;101548.28;;;17.28;100.00
47104;BME280;32853;52.164;5.400;2023-05-07T02:53:51;101537.63;;;17.14;100.00
47104;BME280;32853;52.164;5.400;2023-05-07T02:56:16;101538.56;;;17.13;100.00
47104;BME280;32853;52.164;5.400;2023-05-07T02:58:41;101550.44;;;17.22;100.00
47104;BME280;32853;52.164;5.400;2023-05-07T03:01:07;101481.38;;;16.80;100.00
47104;BME280;32853;52.164;5.400;2023-05-07T03:03:33;101477.00;;;16.64;100.00
47104;BME280;32853;52.164;5.400;2023-05-07T03:05:58;101489.84;;;16.87;100.00
47104;BME280;32853;52.164;5.400;2023-05-07T03:08:24;101497.00;;;16.85;100.00
47104;BME280;32853;52.164;5.400;2023-05-07T03:10:49;101498.34;;;16.92;100.00
47104;BME280;32853;52.164;5.400;2023-05-07T03:13:15;101584.63;;;17.25;100.00
47104;BME280;32853;52.164;5.400;2023-05-07T03:15:40;101516.41;;;17.00;100.00
47104;BME280;32853;52.164;5.400;2023-05-07T03:18:06;101538.47;;;17.14;100.00
47104;BME280;32853;52.164;5.400;2023-05-07T03:20:31;101546.75;;;17.24;100.00
47104;BME280;32853;52.164;5.400;2023-05-07T03:22:56;101546.94;;;17.21;100.00
47104;BME280;32853;52.164;5.400;2023-05-07T03:25:22;101539.16;;;17.18;100.00
47104;BME280;32853;52.164;5.400;2023-05-07T03:27:49;101539.84;;;17.22;100.00
47104;BME280;32853;52.164;5.400;2023-05-07T03:30:18;101534.50;;;17.07;100.00
47104;BME280;32853;52.164;5.400;2023-05-07T03:32:53;101522.19;;;17.06;100.00
47104;BME280;32853;52.164;5.400;2023-05-07T03:35:34;101493.56;;;16.99;100.00
47104;BME280;32853;52.164;5.400;2023-05-07T03:38:14;101533.09;;;17.16;100.00
47104;BME280;32853;52.164;5.400;2023-05-07T03:40:46;101547.88;;;17.20;100.00
47104;BME280;32853;52.164;5.400;2023-05-07T03:43:11;101537.13;;;17.07;100.00
47104;BME280;32853;52.164;5.400;2023-05-07T03:45:37;101495.88;;;16.89;100.00
47104;BME280;32853;52.164;5.400;2023-05-07T03:48:14;101543.69;;;17.16;100.00
47104;BME280;32853;52.164;5.400;2023-05-07T03:50:59;101541.88;;;17.17;100.00
47104;BME280;32853;52.164;5.400;2023-05-07T03:53:41;101520.66;;;17.02;100.00
47104;BME280;32853;52.164;5.400;2023-05-07T03:56:06;101541.22;;;17.13;100.00
47104;BME280;32853;52.164;5.400;2023-05-07T03:58:35;101495.88;;;16.89;100.00
47104;BME280;32853;52.164;5.400;2023-05-07T04:01:01;101528.00;;;16.97;100.00
47104;BME280;32853;52.164;5.400;2023-05-07T04:03:32;101545.75;;;17.11;100.00
47104;BME280;32853;52.164;5.400;2023-05-07T04:05:59;101548.97;;;17.00;100.00
47104;BME280;32853;52.164;5.400;2023-05-07T04:08:24;101532.19;;;16.86;100.00
47104;BME280;32853;52.164;5.400;2023-05-07T04:10:55;101498.34;;;16.76;100.00
47104;BME280;32853;52.164;5.400;2023-05-07T04:13:20;101568.78;;;17.09;100.00
47104;BME280;32853;52.164;5.400;2023-05-07T04:15:45;101564.34;;;17.09;100.00
47104;BME280;32853;52.164;5.400;2023-05-07T04:18:11;101566.13;;;17.09;100.00
47104;BME280;32853;52.164;5.400;2023-05-07T04:20:36;101571.22;;;17.12;100.00
47104;BME280;32853;52.164;5.400;2023-05-07T04:23:02;101545.91;;;16.92;100.00
47104;BME280;32853;52.164;5.400;2023-05-07T04:25:28;101509.00;;;16.75;100.00
47104;BME280;32853;52.164;5.400;2023-05-07T04:28:08;101567.22;;;17.21;100.00
47104;BME280;32853;52.164;5.400;2023-05-07T04:30:33;101560.03;;;17.07;100.00
47104;BME280;32853;52.164;5.400;2023-05-07T04:32:58;101569.41;;;17.28;100.00
47104;BME280;32853;52.164;5.400;2023-05-07T04:35:23;101560.56;;;16.98;100.00
47104;BME280;32853;52.164;5.400;2023-05-07T04:37:49;101550.50;;;16.89;100.00
47104;BME280;32853;52.164;5.400;2023-05-07T04:40:14;101576.00;;;17.05;100.00
47104;BME280;32853;52.164;5.400;2023-05-07T04:42:41;101554.50;;;16.96;100.00
47104;BME280;32853;52.164;5.400;2023-05-07T04:45:06;101561.25;;;17.01;100.00
47104;BME280;32853;52.164;5.400;2023-05-07T04:47:36;101551.13;;;17.09;100.00
47104;BME280;32853;52.164;5.400;2023-05-07T04:50:03;101578.50;;;17.08;100.00
47104;BME280;32853;52.164;5.400;2023-05-07T04:52:36;101552.22;;;16.90;100.00
47104;BME280;32853;52.164;5.400;2023-05-07T04:55:03;101562.97;;;16.87;100.00
47104;BME280;32853;52.164;5.400;2023-05-07T04:57:29;101551.53;;;16.86;100.00
47104;BME280;32853;52.164;5.400;2023-05-07T04:59:54;101564.31;;;16.94;100.00
47104;BME280;32853;52.164;5.400;2023-05-07T05:02:28;101525.81;;;16.56;100.00
47104;BME280;32853;52.164;5.400;2023-05-07T05:05:00;101530.13;;;16.75;100.00
47104;BME280;32853;52.164;5.400;2023-05-07T05:07:27;101582.41;;;17.01;100.00
47104;BME280;32853;52.164;5.400;2023-05-07T05:09:52;101578.53;;;16.91;100.00
47104;BME280;32853;52.164;5.400;2023-05-07T05:12:17;101544.09;;;16.77;100.00
47104;BME280;32853;52.164;5.400;2023-05-07T05:14:51;101584.28;;;16.99;100.00
47104;BME280;32853;52.164;5.400;2023-05-07T05:17:20;101573.94;;;16.95;100.00
47104;BME280;32853;52.164;5.400;2023-05-07T05:19:46;101574.63;;;16.98;100.00
47104;BME280;32853;52.164;5.400;2023-05-07T05:22:11;101587.69;;;17.01;100.00
47104;BME280;32853;52.164;5.400;2023-05-07T05:24:36;101583.41;;;16.99;100.00
47104;BME280;32853;52.164;5.400;2023-05-07T05:27:01;101591.69;;;17.08;100.00
47104;BME280;32853;52.164;5.400;2023-05-07T05:29:27;101589.28;;;17.04;100.00
47104;BME280;32853;52.164;5.400;2023-05-07T05:31:53;101596.91;;;17.10;100.00
47104;BME280;32853;52.164;5.400;2023-05-07T05:34:18;101600.22;;;17.13;100.00
47104;BME280;32853;52.164;5.400;2023-05-07T05:36:46;101600.56;;;17.07;100.00
47104;BME280;32853;52.164;5.400;2023-05-07T05:39:12;101601.34;;;17.09;100.00
47104;BME280;32853;52.164;5.400;2023-05-07T05:41:37;101612.75;;;17.10;100.00
47104;BME280;32853;52.164;5.400;2023-05-07T05:44:07;101601.41;;;17.08;100.00
47104;BME280;32853;52.164;5.400;2023-05-07T05:46:34;101613.03;;;17.21;100.00
47104;BME280;32853;52.164;5.400;2023-05-07T05:49:00;101570.78;;;16.88;100.00
47104;BME280;32853;52.164;5.400;2023-05-07T05:51:26;101621.44;;;17.12;100.00
47104;BME280;32853;52.164;5.400;2023-05-07T05:53:55;101589.72;;;16.96;100.00
47104;BME280;32853;52.164;5.400;2023-05-07T05:56:22;101612.91;;;17.07;100.00
47104;BME280;32853;52.164;5.400;2023-05-07T05:58:49;101571.38;;;16.93;100.00
47104;BME280;32853;52.164;5.400;2023-05-07T06:01:21;101626.66;;;17.13;100.00
47104;BME280;32853;52.164;5.400;2023-05-07T06:03:47;101599.38;;;16.97;100.00
47104;BME280;32853;52.164;5.400;2023-05-07T06:06:12;101610.88;;;17.12;100.00
47104;BME280;32853;52.164;5.400;2023-05-07T06:08:39;101632.19;;;17.25;100.00
47104;BME280;32853;52.164;5.400;2023-05-07T06:11:05;101615.56;;;17.23;100.00
47104;BME280;32853;52.164;5.400;2023-05-07T06:13:30;101588.22;;;17.08;100.00
47104;BME280;32853;52.164;5.400;2023-05-07T06:16:03;101624.63;;;17.34;100.00
47104;BME280;32853;52.164;5.400;2023-05-07T06:18:29;101594.16;;;17.11;100.00
47104;BME280;32853;52.164;5.400;2023-05-07T06:21:02;101638.09;;;17.46;100.00
47104;BME280;32853;52.164;5.400;2023-05-07T06:23:31;101646.34;;;17.39;100.00
47104;BME280;32853;52.164;5.400;2023-05-07T06:25:56;101623.66;;;17.35;100.00
47104;BME280;32853;52.164;5.400;2023-05-07T06:28:21;101653.09;;;17.45;100.00
47104;BME280;32853;52.164;5.400;2023-05-07T06:30:47;101622.50;;;17.41;100.00
47104;BME280;32853;52.164;5.400;2023-05-07T06:33:19;101638.34;;;17.57;100.00
47104;BME280;32853;52.164;5.400;2023-05-07T06:35:45;101612.16;;;17.36;100.00
47104;BME280;32853;52.164;5.400;2023-05-07T06:38:10;101637.06;;;17.48;100.00
47104;BME280;32853;52.164;5.400;2023-05-07T06:40:37;101628.53;;;17.43;100.00
47104;BME280;32853;52.164;5.400;2023-05-07T06:43:02;101634.22;;;17.51;100.00
47104;BME280;32853;52.164;5.400;2023-05-07T06:45:27;101634.69;;;17.43;100.00
47104;BME280;32853;52.164;5.400;2023-05-07T06:47:53;101628.19;;;17.49;100.00
47104;BME280;32853;52.164;5.400;2023-05-07T06:50:18;101659.31;;;17.60;100.00
47104;BME280;32853;52.164;5.400;2023-05-07T06:52:44;101581.03;;;17.10;100.00
47104;BME280;32853;52.164;5.400;2023-05-07T06:55:09;101580.59;;;17.18;100.00
47104;BME280;32853;52.164;5.400;2023-05-07T06:57:37;101639.63;;;17.65;100.00
47104;BME280;32853;52.164;5.400;2023-05-07T07:00:06;101645.34;;;17.58;100.00
47104;BME280;32853;52.164;5.400;2023-05-07T07:02:33;101630.81;;;17.49;100.00
47104;BME280;32853;52.164;5.400;2023-05-07T07:04:59;101628.44;;;17.45;100.00
47104;BME280;32853;52.164;5.400;2023-05-07T07:07:26;101599.28;;;17.30;100.00
47104;BME280;32853;52.164;5.400;2023-05-07T07:09:51;101625.53;;;17.49;100.00
47104;BME280;32853;52.164;5.400;2023-05-07T07:12:17;101649.59;;;17.60;100.00
47104;BME280;32853;52.164;5.400;2023-05-07T07:14:42;101635.69;;;17.57;100.00
47104;BME280;32853;52.164;5.400;2023-05-07T07:17:13;101648.31;;;17.67;100.00
47104;BME280;32853;52.164;5.400;2023-05-07T07:19:39;101640.75;;;17.77;100.00
47104;BME280;32853;52.164;5.400;2023-05-07T07:22:04;101553.22;;;17.03;100.00
47104;BME280;32853;52.164;5.400;2023-05-07T07:24:35;101646.97;;;17.76;100.00
47104;BME280;32853;52.164;5.400;2023-05-07T07:27:00;101598.47;;;17.60;100.00
47104;BME280;32853;52.164;5.400;2023-05-07T07:29:25;101620.06;;;17.84;100.00
47104;BME280;32853;52.164;5.400;2023-05-07T07:31:51;101608.09;;;17.92;100.00
47104;BME280;32853;52.164;5.400;2023-05-07T07:34:17;101650.63;;;17.89;100.00
47104;BME280;32853;52.164;5.400;2023-05-07T07:36:45;101651.53;;;18.04;100.00
47104;BME280;32853;52.164;5.400;2023-05-07T07:39:10;101625.28;;;18.15;100.00
47104;BME280;32853;52.164;5.400;2023-05-07T07:41:35;101635.22;;;18.26;100.00
47104;BME280;32853;52.164;5.400;2023-05-07T07:44:03;101660.59;;;18.30;100.00
47104;BME280;32853;52.164;5.400;2023-05-07T07:46:28;101668.25;;;18.35;100.00
47104;BME280;32853;52.164;5.400;2023-05-07T07:48:54;101656.84;;;18.48;100.00
47104;BME280;32853;52.164;5.400;2023-05-07T07:51:19;101646.72;;;18.41;100.00
47104;BME280;32853;52.164;5.400;2023-05-07T07:53:45;101587.56;;;18.12;100.00
47104;BME280;32853;52.164;5.400;2023-05-07T07:56:10;101645.50;;;18.61;100.00
47104;BME280;32853;52.164;5.400;2023-05-07T07:58:36;101661.41;;;18.61;100.00
47104;BME280;32853;52.164;5.400;2023-05-07T08:01:09;101645.59;;;18.59;100.00
47104;BME280;32853;52.164;5.400;2023-05-07T08:03:41;101613.59;;;18.34;100.00
47104;BME280;32853;52.164;5.400;2023-05-07T08:06:07;101665.84;;;18.60;100.00
47104;BME280;32853;52.164;5.400;2023-05-07T08:08:32;101654.38;;;18.75;100.00
47104;BME280;32853;52.164;5.400;2023-05-07T08:10:58;101616.66;;;18.42;100.00
47104;BME280;32853;52.164;5.400;2023-05-07T08:13:23;101670.19;;;18.61;100.00
47104;BME280;32853;52.164;5.400;2023-05-07T08:15:48;101598.25;;;18.24;100.00
47104;BME280;32853;52.164;5.400;2023-05-07T08:18:14;101665.28;;;18.55;100.00
47104;BME280;32853;52.164;5.400;2023-05-07T08:20:40;101621.75;;;18.31;100.00
47104;BME280;32853;52.164;5.400;2023-05-07T08:23:14;101672.22;;;18.72;100.00
47104;BME280;32853;52.164;5.400;2023-05-07T08:25:43;101658.38;;;18.52;100.00
47104;BME280;32853;52.164;5.400;2023-05-07T08:28:09;101619.66;;;18.36;100.00
47104;BME280;32853;52.164;5.400;2023-05-07T08:30:34;101678.03;;;18.64;100.00
47104;BME280;32853;52.164;5.400;2023-05-07T08:33:00;101666.78;;;18.59;100.00
47104;BME280;32853;52.164;5.400;2023-05-07T08:35:25;101621.44;;;18.21;100.00
47104;BME280;32853;52.164;5.400;2023-05-07T08:37:52;101655.25;;;18.46;100.00
47104;BME280;32853;52.164;5.400;2023-05-07T08:40:17;101666.91;;;18.57;100.00
47104;BME280;32853;52.164;5.400;2023-05-07T08:42:44;101630.00;;;18.40;100.00
47104;BME280;32853;52.164;5.400;2023-05-07T08:45:10;101648.81;;;18.50;100.00
47104;BME280;32853;52.164;5.400;2023-05-07T08:47:43;101616.22;;;18.19;100.00
47104;BME280;32853;52.164;5.400;2023-05-07T08:50:11;101660.53;;;18.46;100.00
47104;BME280;32853;52.164;5.400;2023-05-07T08:52:40;101652.75;;;18.73;100.00
47104;BME280;32853;52.164;5.400;2023-05-07T08:55:16;101672.91;;;18.31;100.00
47104;BME280;32853;52.164;5.400;2023-05-07T08:57:47;101672.72;;;18.48;100.00
47104;BME280;32853;52.164;5.400;2023-05-07T09:00:14;101657.44;;;18.53;100.00
47104;BME280;32853;52.164;5.400;2023-05-07T09:02:39;101645.88;;;18.40;100.00
47104;BME280;32853;52.164;5.400;2023-05-07T09:05:05;101638.47;;;18.31;100.00
47104;BME280;32853;52.164;5.400;2023-05-07T09:07:31;101670.28;;;18.75;100.00
47104;BME280;32853;52.164;5.400;2023-05-07T09:09:56;101678.97;;;18.77;100.00
47104;BME280;32853;52.164;5.400;2023-05-07T09:12:22;101667.25;;;18.96;100.00
47104;BME280;32853;52.164;5.400;2023-05-07T09:14:48;101672.91;;;19.04;100.00
47104;BME280;32853;52.164;5.400;2023-05-07T09:17:15;101675.22;;;18.96;100.00
47104;BME280;32853;52.164;5.400;2023-05-07T09:19:40;101668.19;;;18.80;100.00
47104;BME280;32853;52.164;5.400;2023-05-07T09:22:12;101678.22;;;18.45;100.00
47104;BME280;32853;52.164;5.400;2023-05-07T09:24:38;101679.53;;;18.68;100.00
47104;BME280;32853;52.164;5.400;2023-05-07T09:27:04;101683.63;;;18.74;100.00
47104;BME280;32853;52.164;5.400;2023-05-07T09:29:30;101681.72;;;18.90;100.00
47104;BME280;32853;52.164;5.400;2023-05-07T09:32:02;101668.19;;;19.09;100.00
47104;BME280;32853;52.164;5.400;2023-05-07T09:34:30;101600.22;;;18.79;100.00
47104;BME280;32853;52.164;5.400;2023-05-07T09:36:58;101674.91;;;19.29;100.00
47104;BME280;32853;52.164;5.400;2023-05-07T09:39:23;101687.47;;;19.39;100.00
47104;BME280;32853;52.164;5.400;2023-05-07T09:41:49;101693.53;;;19.27;100.00
47104;BME280;32853;52.164;5.400;2023-05-07T09:44:15;101676.91;;;19.11;100.00
47104;BME280;32853;52.164;5.400;2023-05-07T09:46:42;101655.31;;;19.03;100.00
47104;BME280;32853;52.164;5.400;2023-05-07T09:49:11;101689.38;;;19.37;100.00
47104;BME280;32853;52.164;5.400;2023-05-07T09:51:50;101688.63;;;19.21;100.00
47104;BME280;32853;52.164;5.400;2023-05-07T09:54:16;101689.09;;;19.13;100.00
47104;BME280;32853;52.164;5.400;2023-05-07T09:56:45;101669.31;;;18.91;100.00
47104;BME280;32853;52.164;5.400;2023-05-07T09:59:13;101675.66;;;19.02;100.00
47104;BME280;32853;52.164;5.400;2023-05-07T10:01:41;101671.63;;;18.97;100.00
47104;BME280;32853;52.164;5.400;2023-05-07T10:04:07;101695.06;;;19.31;100.00
47104;BME280;32853;52.164;5.400;2023-05-07T10:06:48;101700.72;;;19.54;100.00
47104;BME280;32853;52.164;5.400;2023-05-07T10:09:14;101692.69;;;19.27;100.00
47104;BME280;32853;52.164;5.400;2023-05-07T10:11:40;101696.50;;;19.08;100.00
47104;BME280;32853;52.164;5.400;2023-05-07T10:14:14;101690.69;;;19.44;100.00
47104;BME280;32853;52.164;5.400;2023-05-07T10:16:48;101703.97;;;19.44;100.00
47104;BME280;32853;52.164;5.400;2023-05-07T10:19:14;101696.94;;;19.58;100.00
47104;BME280;32853;52.164;5.400;2023-05-07T10:21:55;101655.94;;;19.35;100.00
47104;BME280;32853;52.164;5.400;2023-05-07T10:24:26;101703.16;;;19.85;100.00
47104;BME280;32853;52.164;5.400;2023-05-07T10:26:55;101699.50;;;19.59;100.00
47104;BME280;32853;52.164;5.400;2023-05-07T10:34:50;101661.22;;;19.90;100.00
47104;BME280;32853;52.164;5.400;2023-05-07T10:37:18;101678.03;;;19.77;100.00
47104;BME280;32853;52.164;5.400;2023-05-07T10:39:45;101698.06;;;19.95;100.00
47104;BME280;32853;52.164;5.400;2023-05-07T10:42:12;101696.84;;;19.59;100.00
47104;BME280;32853;52.164;5.400;2023-05-07T10:44:47;101661.09;;;19.51;100.00
47104;BME280;32853;52.164;5.400;2023-05-07T10:47:15;101701.66;;;19.94;100.00
47104;BME280;32853;52.164;5.400;2023-05-07T10:52:25;101680.06;;;20.13;100.00
47104;BME280;32853;52.164;5.400;2023-05-07T10:55:21;101683.47;;;20.15;100.00
47104;BME280;32853;52.164;5.400;2023-05-07T10:57:46;101703.97;;;20.40;100.00
47104;BME280;32853;52.164;5.400;2023-05-07T11:03:05;101700.97;;;20.05;100.00
47104;BME280;32853;52.164;5.400;2023-05-07T11:05:32;101705.38;;;20.45;100.00
47104;BME280;32853;52.164;5.400;2023-05-07T11:08:00;101671.28;;;20.65;100.00
47104;BME280;32853;52.164;5.400;2023-05-07T11:10:56;101699.44;;;21.05;100.00
47104;BME280;32853;52.164;5.400;2023-05-07T11:16:24;101702.44;;;20.88;100.00
47104;BME280;32853;52.164;5.400;2023-05-07T11:18:59;101691.06;;;20.99;100.00
47104;BME280;32853;52.164;5.400;2023-05-07T11:21:32;101708.06;;;21.09;100.00
47104;BME280;32853;52.164;5.400;2023-05-07T11:23:58;101691.94;;;21.49;100.00
47104;BME280;32853;52.164;5.400;2023-05-07T11:26:25;101701.97;;;21.45;100.00
47104;BME280;32853;52.164;5.400;2023-05-07T11:28:51;101706.00;;;21.25;100.00
47104;BME280;32853;52.164;5.400;2023-05-07T11:31:21;101715.41;;;21.31;100.00
47104;BME280;32853;52.164;5.400;2023-05-07T11:33:46;101667.19;;;21.23;100.00
47104;BME280;32853;52.164;5.400;2023-05-07T11:36:12;101704.81;;;21.55;100.00
47104;BME280;32853;52.164;5.400;2023-05-07T11:38:41;101714.63;;;21.54;100.00
47104;BME280;32853;52.164;5.400;2023-05-07T11:41:08;101718.78;;;21.82;100.00
47104;BME280;32853;52.164;5.400;2023-05-07T11:43:34;101707.06;;;21.85;100.00
47104;BME280;32853;52.164;5.400;2023-05-07T11:46:11;101674.75;;;21.65;100.00
47104;BME280;32853;52.164;5.400;2023-05-07T11:48:38;101680.97;;;22.01;100.00
47104;BME280;32853;52.164;5.400;2023-05-07T11:51:05;101687.63;;;21.95;100.00
47104;BME280;32853;52.164;5.400;2023-05-07T11:53:38;101704.44;;;22.09;100.00
47104;BME280;32853;52.164;5.400;2023-05-07T11:56:12;101673.25;;;21.61;100.00
47104;BME280;32853;52.164;5.400;2023-05-07T11:58:39;101709.81;;;21.83;100.00
47104;BME280;32853;52.164;5.400;2023-05-07T12:01:07;101702.47;;;21.87;100.00
47104;BME280;32853;52.164;5.400;2023-05-07T12:03:37;101702.53;;;21.98;100.00
47104;BME280;32853;52.164;5.400;2023-05-07T12:06:06;101686.19;;;21.79;100.00
47104;BME280;32853;52.164;5.400;2023-05-07T12:08:36;101713.28;;;22.09;100.00
47104;BME280;32853;52.164;5.400;2023-05-07T12:11:15;101713.31;;;22.55;100.00
47104;BME280;32853;52.164;5.400;2023-05-07T12:13:42;101694.84;;;22.87;100.00
47104;BME280;32853;52.164;5.400;2023-05-07T12:16:09;101705.06;;;22.58;100.00
47104;BME280;32853;52.164;5.400;2023-05-07T12:18:36;101645.41;;;22.37;100.00
47104;BME280;32853;52.164;5.400;2023-05-07T12:21:04;101701.34;;;22.72;100.00
47104;BME280;32853;52.164;5.400;2023-05-07T12:23:30;101649.81;;;22.72;100.00
47104;BME280;32853;52.164;5.400;2023-05-07T12:26:00;101696.66;;;23.54;100.00
47104;BME280;32853;52.164;5.400;2023-05-07T12:28:26;101708.56;;;23.72;100.00
47104;BME280;32853;52.164;5.400;2023-05-07T12:30:52;101661.88;;;23.11;100.00
47104;BME280;32853;52.164;5.400;2023-05-07T12:33:20;101707.81;;;23.48;100.00
47104;BME280;32853;52.164;5.400;2023-05-07T12:35:48;101639.91;;;23.30;100.00
47104;BME280;32853;52.164;5.400;2023-05-07T12:38:17;101697.50;;;24.09;100.00
47104;BME280;32853;52.164;5.400;2023-05-07T12:40:44;101670.94;;;23.96;100.00
47104;BME280;32853;52.164;5.400;2023-05-07T12:43:18;101700.44;;;24.27;100.00
47104;BME280;32853;52.164;5.400;2023-05-07T12:45:45;101678.47;;;23.91;100.00
47104;BME280;32853;52.164;5.400;2023-05-07T12:48:12;101683.78;;;24.02;100.00
47104;BME280;32853;52.164;5.400;2023-05-07T12:50:38;101679.50;;;23.79;100.00
47104;BME280;32853;52.164;5.400;2023-05-07T12:53:04;101652.72;;;24.22;100.00
47104;BME280;32853;52.164;5.400;2023-05-07T12:55:43;101700.69;;;24.77;97.81
47104;BME280;32853;52.164;5.400;2023-05-07T12:58:17;101710.66;;;24.75;93.17